Time;durP1;ratioP1;P1;durP2;ratioP2;P2;SDS_P1;SDS_P2;PMS_P1;PMS_P2;Temp;Humidity;BMP_temperature;BMP_pressure;BME280_temperature;BME280_humidity;BME280_pressure;Samples;Min_cycle;Max_cycle;Signal;HPM_P1;HPM_P2
2021/12/04 00:02:58;;;;;;;5.9;11.4;;;;;;;-2.3;55.5;98200;;;;
2021/12/04 00:13:58;;;;;;;5.9;11.8;;;;;;;-2.6;57;98190;;;;
2021/12/04 00:24:58;;;;;;;5.9;11.8;;;;;;;-2.9;57.3;98190;;;;
2021/12/04 00:35:05;;;;;;;5.9;11.8;;;;;;;-3.1;58.5;98180;;;;
2021/12/04 00:55:58;;;;;;;6.5;12.5;;;;;;;-3.4;60.8;98200;;;;
2021/12/04 01:05:58;;;;;;;6.5;12.5;;;;;;;-3.5;61.4;98190;;;;
2021/12/04 01:16:58;;;;;;;4.8;10.3;;;;;;;-3.6;61.1;98180;;;;
2021/12/04 01:26:58;;;;;;;4.8;10.3;;;;;;;-3.7;61;98160;;;;
2021/12/04 01:36:58;;;;;;;4.8;10.3;;;;;;;-3.8;61.4;98160;;;;
2021/12/04 01:47:58;;;;;;;4.3;11.2;;;;;;;-4;61.9;98160;;;;
2021/12/04 01:58:00;;;;;;;4.3;11.2;;;;;;;-4.3;62.6;98140;;;;
2021/12/04 02:07:58;;;;;;;4.3;11.2;;;;;;;-4.4;62.8;98130;;;;
2021/12/04 02:17:58;;;;;;;4.3;7.7;;;;;;;-4.5;63.1;98110;;;;
2021/12/04 02:27:58;;;;;;;4.3;7.7;;;;;;;-4.6;63.2;98100;;;;
2021/12/04 02:38:58;;;;;;;4.3;7.7;;;;;;;-4.7;64.7;98070;;;;
2021/12/04 02:49:00;;;;;;;3.6;7.9;;;;;;;-4.9;65.8;98070;;;;
2021/12/04 02:59:02;;;;;;;3.6;7.9;;;;;;;-4.9;65.8;98060;;;;
2021/12/04 03:09:58;;;;;;;5.8;12.8;;;;;;;-5.1;65.8;98050;;;;
2021/12/04 03:19:58;;;;;;;5.8;12.8;;;;;;;-4.9;64.9;98050;;;;
2021/12/04 03:30:00;;;;;;;5.8;12.8;;;;;;;-4.9;65.4;98050;;;;
2021/12/04 03:40:05;;;;;;;4.8;8.5;;;;;;;-4.7;63.8;98040;;;;
2021/12/04 03:49:58;;;;;;;4.8;8.5;;;;;;;-4.4;62.4;98030;;;;
2021/12/04 04:00:58;;;;;;;4.8;8.5;;;;;;;-3.2;58.1;98030;;;;
2021/12/04 04:11:58;;;;;;;2.5;4.7;;;;;;;-3.2;58.6;98030;;;;
2021/12/04 04:21:58;;;;;;;2.5;4.7;;;;;;;-3.6;59.7;98020;;;;
2021/12/04 04:33:00;;;;;;;2.5;4.7;;;;;;;-3.6;59.7;98000;;;;
2021/12/04 05:13:58;;;;;;;3.9;6.9;;;;;;;-3.9;59.9;97950;;;;
2021/12/04 05:24:58;;;;;;;3.9;6.9;;;;;;;-4.1;60.2;97930;;;;
2021/12/04 05:34:58;;;;;;;3.9;6.9;;;;;;;-4.1;60.8;97920;;;;
2021/12/04 05:44:58;;;;;;;3.1;5.9;;;;;;;-4.1;61.3;97920;;;;
2021/12/04 05:55:11;;;;;;;3.1;5.9;;;;;;;-3.9;59.1;97910;;;;
2021/12/04 06:05:58;;;;;;;3.1;5.9;;;;;;;-4;61;97900;;;;
2021/12/04 06:16:58;;;;;;;3.2;6.9;;;;;;;-3.8;60.4;97880;;;;
2021/12/04 06:26:58;;;;;;;3.2;6.9;;;;;;;-3.6;59;97870;;;;
2021/12/04 06:36:58;;;;;;;3.2;6.9;;;;;;;-3.3;61.1;97870;;;;
2021/12/04 06:48:01;;;;;;;3.2;6.8;;;;;;;-2.8;59.2;97870;;;;
2021/12/04 06:57:58;;;;;;;3.2;6.8;;;;;;;-2.5;59;97850;;;;
2021/12/04 07:08:58;;;;;;;3.6;7.2;;;;;;;-1.6;58.4;97850;;;;
2021/12/04 07:18:58;;;;;;;3.6;7.2;;;;;;;-1.1;56;97850;;;;
2021/12/04 07:28:58;;;;;;;3.6;7.2;;;;;;;-0.9;56.5;97850;;;;
2021/12/04 07:38:59;;;;;;;7.6;12.8;;;;;;;-1;58.7;97840;;;;
2021/12/04 07:48:58;;;;;;;7.6;12.8;;;;;;;-0.9;59.9;97840;;;;
2021/12/04 07:59:58;;;;;;;7.6;12.8;;;;;;;-0.8;60.2;97830;;;;
2021/12/04 08:09:58;;;;;;;12.1;19.6;;;;;;;-0.7;60.1;97820;;;;
2021/12/04 08:19:58;;;;;;;12.1;19.6;;;;;;;-0.4;59.3;97810;;;;
2021/12/04 08:30:58;;;;;;;12.1;19.6;;;;;;;-0.1;57.6;97820;;;;
2021/12/04 08:40:58;;;;;;;10.1;13.9;;;;;;;0.2;59.2;97810;;;;
2021/12/04 08:50:59;;;;;;;10.1;13.9;;;;;;;0.6;60.8;97800;;;;
2021/12/04 09:00:58;;;;;;;10.1;13.9;;;;;;;0.8;59.7;97810;;;;
2021/12/04 09:11:00;;;;;;;25.6;36.9;;;;;;;1;58.5;97800;;;;
2021/12/04 09:20:58;;;;;;;25.6;36.9;;;;;;;1.8;57.4;97780;;;;
2021/12/04 09:32:17;;;;;;;25.6;36.9;;;;;;;2.5;54.4;97780;;;;
2021/12/04 10:03:20;;;;;;;16.3;19.1;;;;;;;3.8;48.1;97720;;;;
2021/12/04 10:24:11;;;;;;;12.6;17.4;;;;;;;4.5;44.9;97700;;;;
2021/12/04 10:33:58;;;;;;;12.6;17.4;;;;;;;5.1;44.1;97690;;;;
2021/12/04 10:44:59;;;;;;;6.5;10;;;;;;;5.1;42.8;97670;;;;
2021/12/04 10:56:09;;;;;;;6.5;10;;;;;;;5.2;43.2;97660;;;;
2021/12/04 11:19:08;;;;;;;33.2;38.8;;;;;;;4.5;43.6;97620;;;;
2021/12/04 11:28:14;;;;;;;33.2;38.8;;;;;;;5.2;43.6;97600;;;;
2021/12/04 11:39:10;;;;;;;9.1;14;;;;;;;5.2;43.3;97590;;;;
2021/12/04 11:49:00;;;;;;;9.1;14;;;;;;;5.7;41.5;97580;;;;
2021/12/04 11:59:58;;;;;;;9.1;14;;;;;;;5.6;42.8;97570;;;;
2021/12/04 12:09:58;;;;;;;14.1;20.9;;;;;;;5.8;43;97550;;;;
2021/12/04 12:19:58;;;;;;;14.1;20.9;;;;;;;5.8;41.6;97540;;;;
2021/12/04 12:32:18;;;;;;;14.1;20.9;;;;;;;5.5;42.7;97530;;;;
2021/12/04 12:40:58;;;;;;;9.5;13.2;;;;;;;5.5;42.2;97510;;;;
2021/12/04 12:50:58;;;;;;;9.5;13.2;;;;;;;5.4;43.1;97510;;;;
2021/12/04 13:12:03;;;;;;;12;16.7;;;;;;;5.3;44.5;97510;;;;
2021/12/04 13:21:58;;;;;;;12;16.7;;;;;;;5.1;45.9;97500;;;;
2021/12/04 13:31:58;;;;;;;12;16.7;;;;;;;5;45.6;97510;;;;
2021/12/04 13:41:58;;;;;;;8.4;10.8;;;;;;;4.7;46.8;97510;;;;
2021/12/04 13:51:58;;;;;;;8.4;10.8;;;;;;;4.6;48;97510;;;;
2021/12/04 14:02:58;;;;;;;8.4;10.8;;;;;;;4.4;48;97510;;;;
2021/12/04 14:12:58;;;;;;;9;13.4;;;;;;;4.2;48.1;97510;;;;
2021/12/04 14:22:58;;;;;;;9;13.4;;;;;;;4.1;49.3;97510;;;;
2021/12/04 14:32:58;;;;;;;9;13.4;;;;;;;3.9;49.3;97510;;;;
2021/12/04 14:42:58;;;;;;;14.2;18.3;;;;;;;3.7;49.5;97510;;;;
2021/12/04 14:52:58;;;;;;;14.2;18.3;;;;;;;3.4;50.9;97510;;;;
2021/12/04 15:03:59;;;;;;;14.2;18.3;;;;;;;3.2;50.4;97510;;;;
2021/12/04 15:13:58;;;;;;;18.1;24.3;;;;;;;3;51.2;97530;;;;
2021/12/04 15:23:58;;;;;;;18.1;24.3;;;;;;;3.1;50.5;97550;;;;
2021/12/04 15:33:59;;;;;;;18.1;24.3;;;;;;;3;57.8;97560;;;;
2021/12/04 15:44:05;;;;;;;13.6;17.9;;;;;;;3;61.5;97560;;;;
2021/12/04 15:53:58;;;;;;;13.6;17.9;;;;;;;2.9;62.9;97570;;;;
2021/12/04 16:03:59;;;;;;;13.6;17.9;;;;;;;2.8;64.4;97570;;;;
2021/12/04 16:13:58;;;;;;;7.6;11.9;;;;;;;2.8;63.6;97570;;;;
2021/12/04 16:24:59;;;;;;;7.6;11.9;;;;;;;2.7;63.9;97560;;;;
2021/12/04 16:36:05;;;;;;;7.6;11.9;;;;;;;2.5;66.7;97540;;;;
2021/12/04 16:45:58;;;;;;;11.6;15.4;;;;;;;2.4;67.6;97540;;;;
2021/12/04 16:56:16;;;;;;;11.6;15.4;;;;;;;2.3;68.2;97530;;;;
2021/12/04 17:06:58;;;;;;;16.2;20;;;;;;;2.3;66.8;97510;;;;
2021/12/04 17:17:58;;;;;;;16.2;20;;;;;;;2.3;65.5;97500;;;;
2021/12/04 17:27:58;;;;;;;16.2;20;;;;;;;2.3;64.8;97480;;;;
2021/12/04 17:38:00;;;;;;;16.3;20.4;;;;;;;2.3;64.5;97480;;;;
2021/12/04 17:48:58;;;;;;;16.3;20.4;;;;;;;2.4;64.3;97480;;;;
2021/12/04 17:59:58;;;;;;;16.3;20.4;;;;;;;2.3;64.3;97480;;;;
2021/12/04 18:09:59;;;;;;;26.3;31.2;;;;;;;2.4;63.6;97480;;;;
2021/12/04 18:20:58;;;;;;;26.3;31.2;;;;;;;2.4;62.9;97470;;;;
2021/12/04 18:30:58;;;;;;;26.3;31.2;;;;;;;2.4;62.5;97460;;;;
2021/12/04 18:41:59;;;;;;;18.9;25;;;;;;;2.5;62.2;97460;;;;
2021/12/04 18:51:59;;;;;;;18.9;25;;;;;;;2.6;60.4;97450;;;;
2021/12/04 19:02:01;;;;;;;18.9;25;;;;;;;2.7;59.5;97450;;;;
2021/12/04 19:13:02;;;;;;;18;25.7;;;;;;;2.8;58.3;97450;;;;
2021/12/04 19:23:58;;;;;;;18;25.7;;;;;;;2.9;57.3;97450;;;;
2021/12/04 19:34:12;;;;;;;;;;;;;;;;;;;;;
2021/12/04 19:55:04;;;;;;;18.5;24.6;;;;;;;3.1;54.9;97420;;;;
2021/12/04 20:05:06;;;;;;;18.5;24.6;;;;;;;3.1;55.2;97410;;;;
2021/12/04 20:15:58;;;;;;;21.2;25.7;;;;;;;3.2;54.2;97410;;;;
2021/12/04 20:26:02;;;;;;;21.2;25.7;;;;;;;3.1;58;97420;;;;
2021/12/04 20:37:35;;;;;;;79.2;108.7;;;;;;;3;59.5;97410;;;;
2021/12/04 21:08:05;;;;;;;62.3;76.1;;;;;;;2.7;61.1;97400;;;;
2021/12/04 21:50:00;;;;;;;43.1;52.6;;;;;;;2.6;61.6;97380;;;;
2021/12/04 22:10:03;;;;;;;43.6;53.4;;;;;;;2.6;62.9;97380;;;;
2021/12/04 22:21:33;;;;;;;43.6;53.4;;;;;;;2.5;62.9;97370;;;;
2021/12/04 23:02:03;;;;;;;76;87.8;;;;;;;2.7;55;97330;;;;
2021/12/04 23:12:04;;;;;;;27;36.9;;;;;;;3;50.9;97330;;;;
2021/12/04 23:32:37;;;;;;;27;36.9;;;;;;;3.2;48.6;97290;;;;
2021/12/04 23:43:17;;;;;;;7;11.9;;;;;;;3.3;47.1;97280;;;;
